createdAt,value
2017-12-29T00:00:20.941Z,2.93
2017-12-29T00:01:20.971Z,2.90
2017-12-29T00:02:20.940Z,2.87
2017-12-29T00:03:20.933Z,2.87
2017-12-29T00:04:20.913Z,3.01
2017-12-29T00:05:20.912Z,3.03
2017-12-29T00:06:20.889Z,2.86
2017-12-29T00:07:20.895Z,3.00
2017-12-29T00:08:20.882Z,3.00
2017-12-29T00:09:20.876Z,3.04
2017-12-29T00:10:20.938Z,3.01
2017-12-29T00:11:20.861Z,3.04
2017-12-29T00:12:20.841Z,3.00
2017-12-29T00:13:20.846Z,3.04
2017-12-29T00:14:20.837Z,3.01
2017-12-29T00:15:20.824Z,3.01
2017-12-29T00:16:20.818Z,3.01
2017-12-29T00:17:20.810Z,2.89
2017-12-29T00:18:20.795Z,2.83
2017-12-29T00:19:20.790Z,2.82
2017-12-29T00:20:20.784Z,2.75
2017-12-29T00:21:20.775Z,2.72
2017-12-29T00:22:20.765Z,2.79
2017-12-29T00:23:20.760Z,2.68
2017-12-29T00:24:20.749Z,2.69
2017-12-29T00:25:20.755Z,2.69
2017-12-29T00:26:20.731Z,2.72
2017-12-29T00:27:20.722Z,2.72
2017-12-29T00:28:20.701Z,2.75
2017-12-29T00:29:20.707Z,2.65
2017-12-29T00:30:20.686Z,2.62
2017-12-29T00:31:20.677Z,2.71
2017-12-29T00:32:20.666Z,2.60
2017-12-29T00:33:20.657Z,2.62
2017-12-29T00:34:20.656Z,2.53
2017-12-29T00:35:20.650Z,2.51
2017-12-29T00:36:20.644Z,2.49
2017-12-29T00:37:20.628Z,2.56
2017-12-29T00:38:20.620Z,2.43
2017-12-29T00:39:20.608Z,2.42
2017-12-29T00:40:20.605Z,2.39
2017-12-29T00:41:20.601Z,2.33
2017-12-29T00:42:20.586Z,2.35
2017-12-29T00:43:20.567Z,2.29
2017-12-29T00:44:20.555Z,2.28
2017-12-29T00:45:20.557Z,2.31
2017-12-29T00:46:20.543Z,2.33
2017-12-29T00:47:20.538Z,2.35
2017-12-29T00:48:20.558Z,2.26
2017-12-29T00:49:20.518Z,2.26
2017-12-29T00:50:20.503Z,2.24
2017-12-29T00:51:20.492Z,2.22
2017-12-29T00:52:20.486Z,2.17
2017-12-29T00:53:20.488Z,2.17
2017-12-29T00:54:20.474Z,2.20
2017-12-29T00:55:20.460Z,2.29
2017-12-29T00:56:20.450Z,2.25
2017-12-29T00:57:20.443Z,2.24
2017-12-29T00:58:20.430Z,2.20
2017-12-29T00:59:20.419Z,2.22
2017-12-29T01:00:20.549Z,2.22
2017-12-29T01:01:20.405Z,2.22
2017-12-29T01:02:20.393Z,2.28
2017-12-29T01:03:20.476Z,2.24
2017-12-29T01:04:20.378Z,2.26
2017-12-29T01:05:20.372Z,2.31
2017-12-29T01:06:20.486Z,2.20
2017-12-29T01:07:20.392Z,2.31
2017-12-29T01:08:20.340Z,2.36
2017-12-29T01:09:20.333Z,2.39
2017-12-29T01:10:20.325Z,2.32
2017-12-29T01:11:20.329Z,2.36
2017-12-29T01:12:20.624Z,2.32
2017-12-29T01:13:20.310Z,2.28
2017-12-29T01:14:20.291Z,2.35
2017-12-29T01:15:20.280Z,2.25
2017-12-29T01:16:20.447Z,2.22
2017-12-29T01:17:20.265Z,2.18
2017-12-29T01:18:20.255Z,2.18
2017-12-29T01:19:20.240Z,2.14
2017-12-29T01:20:20.243Z,2.13
2017-12-29T01:21:20.226Z,2.08
2017-12-29T01:22:20.217Z,2.00
2017-12-29T01:23:20.227Z,2.08
2017-12-29T01:24:20.217Z,1.99
2017-12-29T01:25:20.184Z,1.95
2017-12-29T01:26:20.176Z,1.97
2017-12-29T01:27:20.173Z,1.95
2017-12-29T01:28:20.162Z,2.08
2017-12-29T01:29:20.159Z,2.06
2017-12-29T01:30:20.155Z,2.00
2017-12-29T01:31:20.137Z,2.07
2017-12-29T01:32:20.123Z,1.99
2017-12-29T01:33:20.110Z,2.04
2017-12-29T01:34:20.110Z,2.00
2017-12-29T01:35:20.096Z,1.92
2017-12-29T01:36:20.090Z,1.95
2017-12-29T01:37:20.080Z,2.07
2017-12-29T01:38:20.070Z,1.97
2017-12-29T01:39:20.069Z,1.97
2017-12-29T01:40:20.051Z,1.95
2017-12-29T01:41:20.044Z,2.00
2017-12-29T01:42:20.047Z,2.02
2017-12-29T01:43:20.024Z,2.04
2017-12-29T01:44:20.016Z,2.00
2017-12-29T01:45:20.010Z,2.07
2017-12-29T01:46:19.998Z,2.06
2017-12-29T01:47:19.985Z,1.95
2017-12-29T01:48:19.977Z,1.95
2017-12-29T01:49:19.971Z,1.97
2017-12-29T01:50:19.960Z,1.99
2017-12-29T01:51:19.943Z,2.02
2017-12-29T01:52:19.942Z,1.99
2017-12-29T01:53:19.932Z,1.95
2017-12-29T01:54:19.925Z,2.13
2017-12-29T01:55:19.912Z,1.99
2017-12-29T01:56:19.906Z,2.00
2017-12-29T01:57:19.895Z,2.04
2017-12-29T01:58:19.889Z,2.04
2017-12-29T01:59:19.880Z,2.08
2017-12-29T02:00:19.866Z,2.10
2017-12-29T02:01:19.855Z,2.08
2017-12-29T02:02:19.853Z,2.07
2017-12-29T02:03:19.843Z,2.02
2017-12-29T02:04:19.824Z,2.02
2017-12-29T02:05:19.822Z,1.88
2017-12-29T02:06:19.814Z,1.91
2017-12-29T02:07:19.804Z,1.94
2017-12-29T02:08:19.813Z,1.87
2017-12-29T02:09:19.785Z,1.84
2017-12-29T02:10:19.774Z,1.91
2017-12-29T02:11:19.771Z,2.02
2017-12-29T02:12:19.758Z,2.00
2017-12-29T02:13:19.748Z,2.02
2017-12-29T02:14:19.741Z,2.02
2017-12-29T02:15:19.727Z,2.10
2017-12-29T02:16:19.719Z,2.04
2017-12-29T02:17:19.714Z,2.10
2017-12-29T02:18:19.699Z,2.04
2017-12-29T02:19:19.695Z,2.02
2017-12-29T02:20:19.689Z,1.99
2017-12-29T02:21:19.679Z,2.07
2017-12-29T02:22:19.664Z,2.07
2017-12-29T02:23:19.656Z,2.00
2017-12-29T02:24:19.649Z,1.95
2017-12-29T02:25:19.644Z,1.97
2017-12-29T02:26:19.629Z,2.10
2017-12-29T02:27:19.619Z,2.15
2017-12-29T02:28:19.605Z,2.02
2017-12-29T02:29:19.599Z,2.07
2017-12-29T02:30:19.601Z,2.14
2017-12-29T02:31:19.584Z,2.10
2017-12-29T02:32:19.571Z,2.06
2017-12-29T02:33:19.565Z,2.07
2017-12-29T02:34:19.555Z,2.07
2017-12-29T02:35:19.542Z,1.99
2017-12-29T02:36:19.537Z,2.04
2017-12-29T02:37:19.528Z,2.07
2017-12-29T02:38:19.517Z,2.02
2017-12-29T02:39:19.511Z,2.07
2017-12-29T02:40:19.504Z,2.06
2017-12-29T02:41:19.486Z,1.87
2017-12-29T02:42:19.478Z,1.89
2017-12-29T02:43:19.466Z,1.85
2017-12-29T02:44:19.465Z,1.87
2017-12-29T02:45:19.459Z,1.87
2017-12-29T02:46:19.445Z,1.88
2017-12-29T02:47:19.437Z,1.89
2017-12-29T02:48:19.421Z,1.89
2017-12-29T02:49:19.414Z,1.92
2017-12-29T02:50:19.408Z,1.97
2017-12-29T02:51:19.399Z,1.97
2017-12-29T02:52:19.388Z,2.06
2017-12-29T02:53:19.382Z,2.13
2017-12-29T02:54:19.373Z,2.04
2017-12-29T02:55:19.359Z,2.07
2017-12-29T02:56:19.349Z,2.06
2017-12-29T02:57:19.342Z,2.15
2017-12-29T02:58:19.332Z,2.18
2017-12-29T02:59:19.324Z,2.20
2017-12-29T03:00:19.312Z,2.17
2017-12-29T03:01:19.304Z,2.18
2017-12-29T03:02:19.296Z,2.26
2017-12-29T03:03:19.287Z,2.25
2017-12-29T03:04:19.282Z,2.31
2017-12-29T03:05:19.270Z,2.32
2017-12-29T03:06:19.260Z,2.28
2017-12-29T03:07:19.251Z,2.20
2017-12-29T03:08:19.242Z,2.22
2017-12-29T03:09:19.231Z,2.20
2017-12-29T03:10:19.225Z,2.18
2017-12-29T03:11:19.215Z,2.11
2017-12-29T03:12:19.206Z,2.14
2017-12-29T03:13:19.195Z,2.22
2017-12-29T03:14:19.194Z,2.18
2017-12-29T03:15:19.178Z,2.32
2017-12-29T03:16:19.170Z,2.38
2017-12-29T03:17:19.161Z,2.38
2017-12-29T03:18:19.174Z,2.39
2017-12-29T03:19:19.148Z,2.36
2017-12-29T03:20:19.141Z,2.36
2017-12-29T03:21:19.124Z,2.39
2017-12-29T03:22:19.118Z,2.47
2017-12-29T03:23:19.108Z,2.47
2017-12-29T03:24:19.104Z,2.57
2017-12-29T03:25:19.091Z,2.57
2017-12-29T03:26:19.081Z,2.64
2017-12-29T03:27:19.070Z,2.60
2017-12-29T03:28:19.061Z,2.61
2017-12-29T03:29:19.054Z,2.64
2017-12-29T03:30:19.046Z,2.60
2017-12-29T03:31:19.038Z,2.68
2017-12-29T03:32:19.027Z,2.68
2017-12-29T03:33:19.017Z,2.67
2017-12-29T03:34:19.012Z,2.62
2017-12-29T03:35:18.999Z,2.69
2017-12-29T03:36:18.993Z,2.60
2017-12-29T03:37:18.984Z,2.62
2017-12-29T03:38:18.977Z,2.57
2017-12-29T03:39:18.959Z,2.49
2017-12-29T03:40:18.956Z,2.62
2017-12-29T03:41:18.949Z,2.64
2017-12-29T03:42:18.939Z,2.61
2017-12-29T03:43:18.929Z,2.57
2017-12-29T03:44:18.922Z,2.56
2017-12-29T03:45:18.911Z,2.56
2017-12-29T03:46:18.902Z,2.57
2017-12-29T03:47:18.895Z,2.69
2017-12-29T03:48:18.886Z,2.69
2017-12-29T03:49:18.883Z,2.61
2017-12-29T03:50:18.868Z,2.51
2017-12-29T03:51:18.859Z,2.51
2017-12-29T03:52:18.851Z,2.50
2017-12-29T03:53:18.840Z,2.56
2017-12-29T03:54:18.837Z,2.50
2017-12-29T03:55:18.826Z,2.49
2017-12-29T03:56:18.815Z,2.65
2017-12-29T03:57:18.809Z,2.61
2017-12-29T03:58:18.796Z,2.61
2017-12-29T03:59:18.790Z,2.61
2017-12-29T04:00:18.783Z,2.57
2017-12-29T04:01:18.778Z,2.57
2017-12-29T04:02:18.764Z,2.64
2017-12-29T04:03:18.758Z,2.64
2017-12-29T04:04:18.748Z,2.64
2017-12-29T04:05:18.734Z,2.61
2017-12-29T04:06:18.735Z,2.60
2017-12-29T04:07:18.719Z,2.56
2017-12-29T04:08:18.710Z,2.64
2017-12-29T04:09:18.702Z,2.57
2017-12-29T04:10:18.698Z,2.61
2017-12-29T04:11:18.684Z,2.62
2017-12-29T04:12:18.675Z,2.57
2017-12-29T04:13:18.667Z,2.56
2017-12-29T04:14:18.658Z,2.68
2017-12-29T04:15:18.648Z,2.69
2017-12-29T04:16:18.642Z,2.67
2017-12-29T04:17:18.633Z,2.87
2017-12-29T04:18:18.622Z,2.67
2017-12-29T04:19:18.618Z,2.83
2017-12-29T04:20:18.605Z,2.79
2017-12-29T04:21:18.598Z,2.69
2017-12-29T04:22:18.590Z,2.72
2017-12-29T04:23:18.580Z,2.68
2017-12-29T04:24:18.571Z,2.80
2017-12-29T04:25:18.563Z,2.85
2017-12-29T04:26:18.550Z,2.87
2017-12-29T04:27:18.544Z,2.83
2017-12-29T04:28:18.539Z,2.82
2017-12-29T04:29:18.527Z,2.92
2017-12-29T04:30:18.522Z,2.79
2017-12-29T04:31:18.507Z,2.87
2017-12-29T04:32:18.500Z,2.83
2017-12-29T04:33:18.493Z,2.83
2017-12-29T04:34:18.495Z,2.86
2017-12-29T04:35:18.475Z,2.79
2017-12-29T04:36:18.467Z,2.82
2017-12-29T04:37:18.461Z,2.82
2017-12-29T04:38:18.454Z,2.74
2017-12-29T04:39:18.451Z,2.82
2017-12-29T04:40:18.434Z,2.85
2017-12-29T04:41:18.424Z,2.75
2017-12-29T04:42:18.416Z,2.87
2017-12-29T04:43:18.409Z,2.75
2017-12-29T04:44:18.399Z,2.75
2017-12-29T04:45:18.391Z,2.80
2017-12-29T04:46:18.383Z,2.89
2017-12-29T04:47:18.371Z,2.82
2017-12-29T04:48:18.367Z,2.93
2017-12-29T04:49:18.357Z,2.77
2017-12-29T04:50:18.353Z,2.82
2017-12-29T04:51:18.337Z,2.85
2017-12-29T04:52:18.329Z,2.85
2017-12-29T04:53:18.317Z,2.79
2017-12-29T04:54:18.313Z,2.79
2017-12-29T04:55:18.304Z,2.74
2017-12-29T04:56:18.297Z,2.71
2017-12-29T04:57:18.287Z,2.68
2017-12-29T04:58:18.279Z,2.79
2017-12-29T04:59:18.271Z,2.82
2017-12-29T05:00:18.262Z,2.71
2017-12-29T05:01:18.248Z,2.67
2017-12-29T05:02:18.247Z,2.75
2017-12-29T05:03:18.232Z,2.75
2017-12-29T05:04:18.229Z,2.83
2017-12-29T05:05:18.221Z,2.82
2017-12-29T05:06:18.210Z,2.79
2017-12-29T05:07:18.204Z,2.75
2017-12-29T05:08:18.194Z,2.80
2017-12-29T05:09:18.181Z,2.86
2017-12-29T05:10:18.177Z,2.74
2017-12-29T05:11:18.160Z,2.74
2017-12-29T05:12:18.159Z,2.65
2017-12-29T05:13:18.159Z,2.80
2017-12-29T05:14:18.139Z,2.71
2017-12-29T05:15:18.144Z,2.85
2017-12-29T05:16:18.128Z,2.75
2017-12-29T05:17:18.114Z,2.69
2017-12-29T05:18:18.113Z,2.69
2017-12-29T05:19:18.097Z,2.83
2017-12-29T05:20:18.093Z,2.80
2017-12-29T05:21:18.083Z,2.80
2017-12-29T05:22:18.073Z,2.77
2017-12-29T05:23:18.064Z,2.83
2017-12-29T05:24:18.052Z,2.83
2017-12-29T05:25:18.048Z,2.79
2017-12-29T05:26:18.038Z,2.77
2017-12-29T05:27:18.043Z,2.89
2017-12-29T05:28:18.017Z,2.93
2017-12-29T05:29:18.020Z,2.93
2017-12-29T05:30:18.005Z,2.92
2017-12-29T05:31:17.994Z,2.85
2017-12-29T05:32:17.987Z,2.90
2017-12-29T05:33:17.977Z,2.89
2017-12-29T05:34:17.969Z,2.92
2017-12-29T05:35:17.961Z,3.01
2017-12-29T05:36:17.958Z,3.01
2017-12-29T05:37:17.948Z,3.03
2017-12-29T05:38:17.941Z,3.07
2017-12-29T05:39:17.933Z,3.05
2017-12-29T05:40:17.917Z,3.00
2017-12-29T05:41:17.917Z,3.04
2017-12-29T05:42:17.905Z,3.04
2017-12-29T05:43:17.891Z,3.01
2017-12-29T05:44:17.886Z,3.04
2017-12-29T05:45:17.878Z,3.00
2017-12-29T05:46:17.868Z,2.98
2017-12-29T05:47:17.860Z,2.89
2017-12-29T05:48:17.852Z,3.03
2017-12-29T05:49:17.844Z,2.95
2017-12-29T05:50:17.832Z,2.87
2017-12-29T05:51:17.826Z,2.95
2017-12-29T05:52:17.827Z,2.98
2017-12-29T05:53:17.808Z,2.92
2017-12-29T05:54:17.802Z,2.93
2017-12-29T05:55:17.795Z,2.97
2017-12-29T05:56:17.784Z,2.85
2017-12-29T05:57:17.775Z,2.86
2017-12-29T05:58:17.766Z,2.83
2017-12-29T05:59:17.759Z,2.83
2017-12-29T06:00:17.749Z,2.87
2017-12-29T06:01:17.740Z,2.80
2017-12-29T06:02:17.734Z,2.93
2017-12-29T06:03:17.722Z,2.89
2017-12-29T06:04:17.714Z,2.87
2017-12-29T06:05:17.755Z,2.93
2017-12-29T06:06:17.700Z,2.89
2017-12-29T06:07:17.690Z,2.89
2017-12-29T06:08:17.679Z,2.95
2017-12-29T06:09:17.675Z,2.87
2017-12-29T06:10:17.666Z,3.05
2017-12-29T06:11:17.655Z,2.87
2017-12-29T06:12:17.651Z,2.95
2017-12-29T06:13:17.638Z,3.03
2017-12-29T06:14:17.633Z,3.05
2017-12-29T06:15:17.622Z,3.05
2017-12-29T06:16:17.615Z,3.03
2017-12-29T06:17:17.601Z,3.05
2017-12-29T06:18:17.599Z,3.03
2017-12-29T06:19:17.584Z,3.01
2017-12-29T06:20:17.580Z,3.04
2017-12-29T06:21:17.572Z,3.07
2017-12-29T06:22:17.562Z,2.95
2017-12-29T06:23:17.556Z,2.98
2017-12-29T06:24:17.544Z,3.01
2017-12-29T06:25:17.542Z,3.07
2017-12-29T06:26:17.528Z,3.01
2017-12-29T06:27:17.520Z,3.07
2017-12-29T06:28:17.511Z,3.14
2017-12-29T06:29:17.501Z,3.01
2017-12-29T06:30:17.495Z,3.11
2017-12-29T06:31:17.487Z,3.11
2017-12-29T06:32:17.480Z,3.11
2017-12-29T06:33:17.479Z,3.07
2017-12-29T06:34:17.461Z,3.04
2017-12-29T06:35:17.453Z,3.01
2017-12-29T06:36:17.447Z,3.00
2017-12-29T06:37:17.441Z,3.08
2017-12-29T06:38:17.426Z,3.05
2017-12-29T06:39:17.418Z,3.05
2017-12-29T06:40:17.409Z,3.11
2017-12-29T06:41:17.402Z,3.05
2017-12-29T06:42:17.390Z,3.05
2017-12-29T06:43:17.394Z,3.04
2017-12-29T06:44:17.373Z,3.03
2017-12-29T06:45:17.372Z,3.10
2017-12-29T06:46:17.361Z,3.11
2017-12-29T06:47:17.350Z,3.11
2017-12-29T06:48:17.343Z,3.11
2017-12-29T06:49:17.336Z,3.05
2017-12-29T06:50:17.327Z,3.05
2017-12-29T06:51:17.317Z,3.07
2017-12-29T06:52:17.311Z,3.10
2017-12-29T06:53:17.303Z,3.14
2017-12-29T06:54:17.292Z,3.14
2017-12-29T06:55:17.284Z,3.10
2017-12-29T06:56:17.274Z,3.05
2017-12-29T06:57:17.267Z,3.08
2017-12-29T06:58:17.266Z,3.08
2017-12-29T06:59:17.252Z,3.13
2017-12-29T07:00:17.263Z,3.14
2017-12-29T07:01:17.239Z,3.08
2017-12-29T07:02:17.236Z,3.13
2017-12-29T07:03:17.211Z,3.14
2017-12-29T07:04:17.205Z,3.14
2017-12-29T07:05:17.216Z,3.16
2017-12-29T07:06:17.192Z,3.13
2017-12-29T07:07:17.184Z,3.14
2017-12-29T07:08:17.176Z,3.13
2017-12-29T07:09:17.169Z,3.11
2017-12-29T07:10:17.157Z,3.14
2017-12-29T07:11:17.151Z,3.08
2017-12-29T07:12:17.142Z,3.11
2017-12-29T07:13:17.137Z,3.05
2017-12-29T07:14:17.126Z,3.11
2017-12-29T07:15:17.112Z,3.14
2017-12-29T07:16:17.109Z,3.10
2017-12-29T07:17:17.101Z,3.16
2017-12-29T07:18:17.094Z,3.21
2017-12-29T07:19:17.086Z,3.22
2017-12-29T07:20:17.075Z,3.22
2017-12-29T07:21:17.068Z,3.25
2017-12-29T07:22:17.060Z,3.03
2017-12-29T07:23:17.050Z,3.04
2017-12-29T07:24:17.040Z,3.03
2017-12-29T07:25:17.036Z,3.11
2017-12-29T07:26:17.026Z,3.07
2017-12-29T07:27:17.019Z,3.08
2017-12-29T07:28:17.011Z,3.08
2017-12-29T07:29:17.002Z,3.10
2017-12-29T07:30:16.992Z,3.11
2017-12-29T07:31:16.984Z,3.10
2017-12-29T07:32:16.980Z,3.13
2017-12-29T07:33:16.969Z,3.16
2017-12-29T07:34:16.961Z,3.07
2017-12-29T07:35:17.717Z,3.05
2017-12-29T07:36:16.948Z,3.10
2017-12-29T07:37:16.935Z,3.16
2017-12-29T07:38:16.927Z,3.08
2017-12-29T07:39:16.919Z,3.13
2017-12-29T07:40:16.911Z,3.25
2017-12-29T07:41:16.901Z,3.22
2017-12-29T07:42:16.895Z,3.26
2017-12-29T07:43:16.886Z,3.25
2017-12-29T07:44:16.875Z,3.25
2017-12-29T07:45:16.869Z,3.25
2017-12-29T07:46:16.862Z,3.28
2017-12-29T07:47:16.853Z,3.23
2017-12-29T07:48:16.849Z,3.23
2017-12-29T07:49:16.836Z,3.29
2017-12-29T07:50:16.832Z,3.22
2017-12-29T07:51:16.820Z,3.31
2017-12-29T07:52:16.813Z,3.22
2017-12-29T07:53:16.805Z,3.25
2017-12-29T07:54:16.797Z,3.32
2017-12-29T07:55:16.800Z,3.40
2017-12-29T07:56:16.780Z,3.29
2017-12-29T07:57:16.772Z,3.31
2017-12-29T07:58:16.767Z,3.28
2017-12-29T07:59:16.755Z,3.21
2017-12-29T08:00:16.746Z,3.22
2017-12-29T08:01:16.738Z,3.21
2017-12-29T08:02:16.732Z,3.29
2017-12-29T08:03:16.721Z,3.32
2017-12-29T08:04:16.718Z,3.26
2017-12-29T08:05:16.707Z,3.26
2017-12-29T08:06:16.699Z,3.25
2017-12-29T08:07:16.689Z,3.25
2017-12-29T08:08:16.682Z,3.26
2017-12-29T08:09:16.674Z,3.29
2017-12-29T08:10:16.665Z,3.41
2017-12-29T08:11:16.656Z,3.31
2017-12-29T08:12:16.648Z,3.34
2017-12-29T08:13:16.643Z,3.41
2017-12-29T08:14:16.632Z,3.42
2017-12-29T08:15:16.625Z,3.36
2017-12-29T08:16:16.617Z,3.29
2017-12-29T08:17:16.606Z,3.34
2017-12-29T08:18:16.602Z,3.29
2017-12-29T08:19:16.590Z,3.36
2017-12-29T08:20:16.582Z,3.26
2017-12-29T08:21:16.577Z,3.32
2017-12-29T08:22:16.566Z,3.40
2017-12-29T08:23:16.560Z,3.41
2017-12-29T08:24:16.553Z,3.45
2017-12-29T08:25:16.545Z,3.42
2017-12-29T08:26:16.546Z,3.45
2017-12-29T08:27:16.530Z,3.44
2017-12-29T08:28:16.519Z,3.40
2017-12-29T08:29:16.512Z,3.50
2017-12-29T08:30:16.505Z,3.48
2017-12-29T08:31:16.496Z,3.42
2017-12-29T08:32:16.488Z,3.50
2017-12-29T08:33:16.474Z,3.51
2017-12-29T08:34:16.496Z,3.44
2017-12-29T08:35:16.462Z,3.44
2017-12-29T08:36:16.458Z,3.51
2017-12-29T08:37:16.451Z,3.45
2017-12-29T08:38:16.454Z,3.47
2017-12-29T08:39:16.428Z,3.50
2017-12-29T08:40:16.423Z,3.40
2017-12-29T08:41:16.426Z,3.37
2017-12-29T08:42:16.408Z,3.40
2017-12-29T08:43:16.399Z,3.37
2017-12-29T08:44:16.392Z,3.53
2017-12-29T08:45:16.389Z,3.51
2017-12-29T08:46:16.384Z,3.48
2017-12-29T08:47:16.376Z,3.50
2017-12-29T08:48:16.358Z,3.53
2017-12-29T08:49:16.354Z,3.65
2017-12-29T08:50:16.346Z,3.53
2017-12-29T08:51:16.333Z,3.56
2017-12-29T08:52:16.332Z,3.62
2017-12-29T08:53:16.319Z,3.47
2017-12-29T08:54:16.313Z,3.50
2017-12-29T08:55:16.306Z,3.47
2017-12-29T08:56:16.299Z,3.47
2017-12-29T08:57:16.289Z,3.47
2017-12-29T08:58:16.285Z,3.47
2017-12-29T08:59:16.273Z,3.55
2017-12-29T09:00:16.263Z,3.56
2017-12-29T09:01:16.258Z,3.45
2017-12-29T09:02:16.252Z,3.58
2017-12-29T09:03:16.243Z,3.48
2017-12-29T09:04:16.232Z,3.60
2017-12-29T09:05:16.229Z,3.62
2017-12-29T09:06:16.221Z,3.62
2017-12-29T09:07:16.212Z,3.63
2017-12-29T09:08:16.203Z,3.59
2017-12-29T09:09:16.199Z,3.74
2017-12-29T09:10:16.191Z,3.62
2017-12-29T09:11:16.182Z,3.78
2017-12-29T09:12:16.178Z,3.74
2017-12-29T09:13:16.166Z,3.81
2017-12-29T09:14:16.157Z,3.70
2017-12-29T09:15:16.148Z,3.73
2017-12-29T09:16:16.140Z,3.58
2017-12-29T09:17:16.140Z,3.60
2017-12-29T09:18:16.147Z,3.59
2017-12-29T09:19:16.120Z,3.66
2017-12-29T09:20:16.112Z,3.69
2017-12-29T09:21:16.110Z,3.60
2017-12-29T09:22:16.094Z,3.58
2017-12-29T09:23:16.085Z,3.60
2017-12-29T09:24:16.079Z,3.63
2017-12-29T09:25:16.070Z,3.77
2017-12-29T09:26:16.067Z,3.74
2017-12-29T09:27:16.049Z,3.59
2017-12-29T09:28:16.050Z,3.69
2017-12-29T09:29:16.044Z,3.68
2017-12-29T09:30:16.032Z,3.70
2017-12-29T09:31:16.040Z,3.74
2017-12-29T09:32:16.020Z,3.80
2017-12-29T09:33:16.008Z,3.88
2017-12-29T09:34:16.003Z,3.87
2017-12-29T09:35:15.995Z,3.91
2017-12-29T09:36:15.984Z,3.81
2017-12-29T09:37:15.979Z,3.77
2017-12-29T09:38:15.971Z,3.77
2017-12-29T09:39:15.965Z,3.66
2017-12-29T09:40:15.953Z,3.76
2017-12-29T09:41:15.946Z,3.84
2017-12-29T09:42:15.939Z,3.86
2017-12-29T09:43:15.931Z,3.81
2017-12-29T09:44:15.926Z,3.91
2017-12-29T09:45:15.926Z,3.94
2017-12-29T09:46:15.915Z,3.88
2017-12-29T09:47:15.901Z,3.87
2017-12-29T09:48:15.917Z,3.96
2017-12-29T09:49:15.879Z,3.92
2017-12-29T09:50:15.878Z,4.05
2017-12-29T09:51:15.883Z,3.98
2017-12-29T09:52:15.864Z,4.02
2017-12-29T09:53:15.856Z,4.14
2017-12-29T09:54:15.850Z,4.16
2017-12-29T09:55:15.858Z,4.16
2017-12-29T09:56:15.833Z,4.14
2017-12-29T09:57:15.851Z,4.20
2017-12-29T09:58:15.817Z,4.08
2017-12-29T09:59:15.809Z,4.10
2017-12-29T10:00:15.803Z,4.06
2017-12-29T10:01:15.798Z,4.06
2017-12-29T10:02:15.790Z,3.99
2017-12-29T10:03:15.783Z,3.94
2017-12-29T10:04:15.778Z,3.99
2017-12-29T10:05:15.769Z,3.96
2017-12-29T10:06:15.773Z,4.02
2017-12-29T10:07:15.759Z,4.10
2017-12-29T10:08:15.748Z,4.06
2017-12-29T10:09:15.750Z,4.08
2017-12-29T10:10:15.731Z,4.06
2017-12-29T10:11:15.722Z,4.08
2017-12-29T10:12:15.716Z,4.06
2017-12-29T10:13:15.702Z,4.13
2017-12-29T10:14:15.700Z,4.16
2017-12-29T10:15:15.693Z,4.10
2017-12-29T10:16:15.685Z,4.16
2017-12-29T10:17:15.678Z,4.13
2017-12-29T10:18:15.668Z,4.19
2017-12-29T10:19:15.660Z,4.06
2017-12-29T10:20:15.657Z,4.16
2017-12-29T10:21:15.654Z,4.19
2017-12-29T10:22:15.649Z,4.28
2017-12-29T10:23:15.634Z,4.24
2017-12-29T10:24:15.630Z,4.28
2017-12-29T10:25:15.622Z,4.34
2017-12-29T10:26:15.617Z,4.40
2017-12-29T10:27:15.605Z,4.44
2017-12-29T10:28:15.599Z,4.44
2017-12-29T10:29:15.595Z,4.40
2017-12-29T10:30:15.589Z,4.45
2017-12-29T10:31:15.579Z,4.48
2017-12-29T10:32:15.570Z,4.41
2017-12-29T10:33:15.563Z,4.34
2017-12-29T10:34:15.564Z,4.35
2017-12-29T10:35:15.639Z,4.44
2017-12-29T10:36:15.545Z,4.48
2017-12-29T10:37:15.545Z,4.50
2017-12-29T10:38:15.528Z,4.52
2017-12-29T10:39:15.525Z,4.49
2017-12-29T10:40:15.528Z,4.45
2017-12-29T10:41:15.502Z,4.37
2017-12-29T10:42:15.501Z,4.41
2017-12-29T10:43:15.500Z,4.40
2017-12-29T10:44:15.485Z,4.35
2017-12-29T10:45:15.482Z,4.48
2017-12-29T10:46:15.474Z,4.38
2017-12-29T10:47:15.464Z,4.30
2017-12-29T10:48:15.457Z,4.40
2017-12-29T10:49:15.457Z,4.28
2017-12-29T10:50:15.445Z,4.37
2017-12-29T10:51:15.440Z,4.38
2017-12-29T10:52:15.432Z,4.35
2017-12-29T10:53:15.425Z,4.35
2017-12-29T10:54:15.427Z,4.40
2017-12-29T10:55:15.413Z,4.40
2017-12-29T10:56:15.418Z,4.28
2017-12-29T10:57:15.397Z,4.34
2017-12-29T10:58:15.428Z,4.24
2017-12-29T10:59:15.387Z,4.32
2017-12-29T11:00:15.386Z,4.32
2017-12-29T11:01:15.370Z,4.32
2017-12-29T11:02:15.362Z,4.38
2017-12-29T11:03:15.355Z,4.41
2017-12-29T11:04:15.349Z,4.40
2017-12-29T11:05:15.377Z,4.38
2017-12-29T11:06:15.379Z,4.32
2017-12-29T11:07:15.355Z,4.34
2017-12-29T11:08:15.319Z,4.37
2017-12-29T11:09:15.313Z,4.37
2017-12-29T11:10:15.306Z,4.37
2017-12-29T11:11:15.299Z,4.42
2017-12-29T11:12:15.286Z,4.38
2017-12-29T11:13:15.283Z,4.16
2017-12-29T11:14:15.277Z,4.23
2017-12-29T11:15:15.269Z,4.30
2017-12-29T11:16:15.262Z,4.28
2017-12-29T11:17:15.255Z,4.02
2017-12-29T11:18:15.249Z,4.06
2017-12-29T11:19:15.283Z,4.12
2017-12-29T11:20:15.232Z,4.08
2017-12-29T11:21:15.230Z,4.26
2017-12-29T11:22:15.214Z,4.13
2017-12-29T11:23:15.210Z,4.30
2017-12-29T11:24:15.196Z,4.23
2017-12-29T11:25:15.197Z,4.06
2017-12-29T11:26:15.190Z,4.05
2017-12-29T11:27:15.183Z,4.06
2017-12-29T11:28:15.172Z,4.06
2017-12-29T11:29:15.166Z,4.14
2017-12-29T11:30:15.191Z,4.17
2017-12-29T11:31:15.151Z,4.31
2017-12-29T11:32:15.144Z,4.30
2017-12-29T11:33:15.138Z,4.26
2017-12-29T11:34:15.137Z,4.26
2017-12-29T11:35:15.120Z,4.42
2017-12-29T11:36:15.129Z,4.41
2017-12-29T11:37:15.125Z,4.40
2017-12-29T11:38:15.099Z,4.37
2017-12-29T11:39:15.092Z,4.32
2017-12-29T11:40:15.085Z,4.50
2017-12-29T11:41:15.077Z,4.55
2017-12-29T11:42:15.075Z,4.40
2017-12-29T11:43:15.062Z,4.35
2017-12-29T11:44:15.050Z,4.37
2017-12-29T11:45:15.047Z,4.23
2017-12-29T11:46:15.043Z,4.31
2017-12-29T11:47:15.037Z,4.40
2017-12-29T11:48:15.024Z,4.41
2017-12-29T11:49:15.019Z,4.38
2017-12-29T11:50:15.010Z,4.40
2017-12-29T11:51:14.999Z,4.38
2017-12-29T11:52:14.997Z,4.31
2017-12-29T11:53:14.986Z,4.22
2017-12-29T11:54:14.982Z,4.41
2017-12-29T11:55:14.971Z,4.38
2017-12-29T11:56:14.966Z,4.32
2017-12-29T11:57:14.955Z,4.32
2017-12-29T11:58:14.944Z,4.32
2017-12-29T11:59:14.943Z,4.42
2017-12-29T12:00:14.933Z,4.44
2017-12-29T12:01:14.928Z,4.42
2017-12-29T12:02:14.926Z,4.42
2017-12-29T12:03:14.914Z,4.37
2017-12-29T12:04:14.899Z,4.44
2017-12-29T12:05:14.896Z,4.50
2017-12-29T12:06:14.889Z,4.59
2017-12-29T12:07:14.886Z,4.68
2017-12-29T12:08:14.876Z,4.68
2017-12-29T12:09:14.867Z,4.53
2017-12-29T12:10:14.862Z,4.41
2017-12-29T12:11:14.851Z,4.50
2017-12-29T12:12:14.845Z,4.41
2017-12-29T12:13:14.840Z,4.41
2017-12-29T12:14:14.830Z,4.48
2017-12-29T12:15:14.825Z,4.52
2017-12-29T12:16:14.818Z,4.58
2017-12-29T12:17:14.828Z,4.37
2017-12-29T12:18:14.807Z,4.37
2017-12-29T12:19:14.794Z,4.35
2017-12-29T12:20:14.800Z,4.40
2017-12-29T12:21:14.780Z,4.26
2017-12-29T12:22:14.775Z,4.14
2017-12-29T12:23:14.779Z,4.26
2017-12-29T12:24:14.759Z,4.28
2017-12-29T12:25:14.765Z,4.23
2017-12-29T12:26:14.746Z,4.24
2017-12-29T12:27:14.742Z,4.24
2017-12-29T12:28:14.729Z,4.17
2017-12-29T12:29:14.725Z,4.14
2017-12-29T12:30:14.720Z,4.17
2017-12-29T12:31:14.710Z,4.28
2017-12-29T12:32:14.704Z,4.40
2017-12-29T12:33:14.712Z,4.40
2017-12-29T12:34:14.685Z,4.37
2017-12-29T12:35:14.679Z,4.40
2017-12-29T12:36:14.675Z,4.38
2017-12-29T12:37:14.669Z,4.26
2017-12-29T12:38:14.661Z,4.37
2017-12-29T12:39:14.651Z,4.31
2017-12-29T12:40:14.642Z,4.26
2017-12-29T12:41:14.668Z,4.40
2017-12-29T12:42:14.637Z,4.32
2017-12-29T12:43:14.623Z,4.37
2017-12-29T12:44:14.616Z,4.38
2017-12-29T12:45:14.610Z,4.37
2017-12-29T12:46:14.602Z,4.34
2017-12-29T12:47:14.606Z,4.34
2017-12-29T12:48:14.585Z,4.35
2017-12-29T12:49:14.581Z,4.31
2017-12-29T12:50:14.574Z,4.37
2017-12-29T12:51:14.562Z,4.38
2017-12-29T12:52:14.560Z,4.30
2017-12-29T12:53:14.549Z,4.23
2017-12-29T12:54:14.536Z,4.16
2017-12-29T12:55:14.552Z,4.17
2017-12-29T12:56:14.528Z,4.14
2017-12-29T12:57:14.520Z,4.22
2017-12-29T12:58:14.511Z,4.22
2017-12-29T12:59:14.542Z,4.30
2017-12-29T13:00:14.555Z,4.30
2017-12-29T13:01:14.543Z,4.13
2017-12-29T13:02:14.497Z,4.16
2017-12-29T13:03:14.481Z,4.14
2017-12-29T13:04:14.542Z,4.04
2017-12-29T13:05:14.462Z,4.04
2017-12-29T13:06:14.474Z,4.04
2017-12-29T13:07:14.491Z,4.04
2017-12-29T13:08:14.443Z,4.05
2017-12-29T13:09:14.607Z,4.14
2017-12-29T13:10:14.429Z,4.05
2017-12-29T13:11:14.449Z,4.24
2017-12-29T13:12:14.455Z,4.31
2017-12-29T13:13:14.516Z,4.30
2017-12-29T13:14:14.405Z,4.31
2017-12-29T13:15:14.512Z,4.24
2017-12-29T13:16:14.448Z,4.23
2017-12-29T13:17:14.372Z,4.37
2017-12-29T13:18:14.396Z,4.26